Detailed Flight Report of Nuri Burak ERKAL ;
Number CXD079 
Departure Aerodrome LTFE 
Arrival Aerodrome UBBB

Map generated by the Great Circle Mapper - copyright © Karl L. Swartz.

Pilot In Command CXD079 : Nuri Burak Erkal
Aircraft B773 / TC-NZL
Date Of Flight 2020-07-22
Departure Time 13:12 UTC
Arrival Time 15:34 UTC
Block Time 02:22
Distance 1,104 Nm.
Used Fuel 32,767 Lbs.
   
Detailed Flight Log [2020/07/22 13:09:00]
Flight IATA:C001
Pilot Number:079
Company ICAO:CXD
Aircraft Type:B773
Aircraft Registration:TC-NZL
Departing Airport: LTFE
Destination Airport: UBBB
Alternate Airport:UBBQ
Online: VATSIM
Route:AKBUK UT241 DEN UR32 HAY UW705 GEM UA285 SIV UA4 ERZ UB374 INDUR N449 GOTUB T447 INSAN
Flight Level:FL370
No pause
13:09 Zero fuel Weight: 514816 Lbs, Fuel Weight: 69559 Lbs
13:09 VATSIM:LTFE 212050Z 21005KT 180V240 CAVOK 28/14 Q1007 NOSIG
13:09 VATSIM:UBBB 212100Z 33032G42KT 8000 BKN015 26/22 Q1006 R88/CLRD// NOSIG
13:12 Parking Brakes off
13:20 VR= 170 Knots
13:20 V2= 177 Knots
13:20 Take-off
13:20 Take off Weight: 583180 Lbs
13:20 Wind: 203º @ 005 Knots Heading: 285º
13:20 POS N37º 15´ 11´´ E027º 39´ 24´´
13:20 N11 92 N12 92
13:20 Flaps:15º at 179 Knots
13:20 Gear Up: 181 Knots
13:21 Flaps:5º at 183 Knots
13:21 Flaps:1º at 193 Knots
13:22 Flaps:U
p at 215 Knots
13:35 Wind:269º@045 Knots Heading: 056º Ground Speed: 534 Knots Altitude 27828 ft
13:42 TOC
13:42 Fuel Weight: 56626 Lb
13:50 Wind:263º@061 Knots Heading: 065º Ground Speed: 547 Knots Altitude 37050 ft
14:05 Wind:263º@066 Knots Heading: 083º Ground Speed: 554 Knots Altitude 37063 ft
14:20 Wind:260º@072 Knots Heading: 085º Ground Speed: 559 Knots Altitude 37129 ft
14:35 Wind:259º@072 Knots Heading: 091º Ground Speed: 558 Knots Altitude 37060 ft
14:50 Wind:260º@067 Knots Heading: 086º Ground Speed: 556 Knots Altitude 37070 ft
15:04 TOD
15:04 Fuel Weight: 35245 Lb
15:05 Wind:263º@059 Knots Heading: 088º Ground Speed: 540 Knots Altitude 35396 ft
15:20 Wind:231º@014 Knots Heading: 082º Ground Speed: 386 Knots Altitude 14235 ft
15:30 Flaps:1º at 201 Knots
15:30 Flaps:5º at 189 Knots
15:31 Gear Down: 183 Knots
15:31 Flaps:15º at 181 Knots
15:31 Flaps:3
0º at 179 Knots
15:32 Flaps:35º at 170 Knots
15:32 Flaps:Full at 143 Knots
15:34 TouchDown:Rate -231 ft/min Speed: 136 Knots
15:34 VATSIM:UBBB 212300Z 33026G36KT 9999 FEW015 25/21 Q1006 R88/CLRD// NOSIG
15:34 Land
15:34 Wind:337º@030 Knots
15:34 Heading: 345º
15:34 Flight Duration: 02:14
15:34 Landing Weight: 546019 Lbs
15:34 POS N40º 28´ 02´´ E050º 02´ 15´´
15:34 Parking brakes on
15:34 Block to Block Duration: 02:22
15:34 Final Fuel: 31208 Lbls
15:34 Spent Fuel: 38351 Lbls
15:34 Flight Length: 1104 NM
15:34 TOD Land Length: 182 NM

Text Link of Flight Log http://www.candanair.net/acars/logs/CXD07920200722130900.txt
   

[ Back ]